sensor_id;sensor_type;location;lat;lon;timestamp;pressure;altitude;pressure_sealevel;temperature;humidity
71662;BME280;59500;49.588;18.018;2022-07-18T00:00:40;99064.69;;;11.96;68.91
71662;BME280;59500;49.588;18.018;2022-07-18T00:03:09;99055.84;;;11.86;69.64
71662;BME280;59500;49.588;18.018;2022-07-18T00:05:34;99055.31;;;11.83;69.56
71662;BME280;59500;49.588;18.018;2022-07-18T00:08:01;99061.78;;;11.80;70.19
71662;BME280;59500;49.588;18.018;2022-07-18T00:10:26;99059.41;;;11.77;70.22
71662;BME280;59500;49.588;18.018;2022-07-18T00:12:52;99061.69;;;11.72;69.62
71662;BME280;59500;49.588;18.018;2022-07-18T00:15:18;99058.19;;;11.71;69.63
71662;BME280;59500;49.588;18.018;2022-07-18T00:17:44;99065.63;;;11.68;69.60
71662;BME280;59500;49.588;18.018;2022-07-18T00:20:11;99056.09;;;11.65;69.54
71662;BME280;59500;49.588;18.018;2022-07-18T00:22:37;99057.94;;;11.65;69.58
71662;BME280;59500;49.588;18.018;2022-07-18T00:25:04;99065.38;;;11.61;69.77
71662;BME280;59500;49.588;18.018;2022-07-18T00:27:30;99063.25;;;11.65;70.52
71662;BME280;59500;49.588;18.018;2022-07-18T00:29:56;99056.81;;;11.57;70.25
71662;BME280;59500;49.588;18.018;2022-07-18T00:32:22;99057.25;;;11.53;69.91
71662;BME280;59500;49.588;18.018;2022-07-18T00:34:47;99055.72;;;11.50;70.30
71662;BME280;59500;49.588;18.018;2022-07-18T00:37:13;99056.03;;;11.47;70.35
71662;BME280;59500;49.588;18.018;2022-07-18T00:39:39;99061.63;;;11.44;70.78
71662;BME280;59500;49.588;18.018;2022-07-18T00:42:05;99054.06;;;11.39;70.71
71662;BME280;59500;49.588;18.018;2022-07-18T00:44:31;99055.22;;;11.37;70.87
71662;BME280;59500;49.588;18.018;2022-07-18T00:46:59;99054.63;;;11.33;70.34
71662;BME280;59500;49.588;18.018;2022-07-18T00:49:26;99043.59;;;11.28;70.89
71662;BME280;59500;49.588;18.018;2022-07-18T00:51:53;99054.38;;;11.27;71.58
71662;BME280;59500;49.588;18.018;2022-07-18T00:54:20;99052.41;;;11.29;71.90
71662;BME280;59500;49.588;18.018;2022-07-18T00:56:48;99057.75;;;11.29;71.12
71662;BME280;59500;49.588;18.018;2022-07-18T00:59:15;99052.72;;;11.26;70.79
71662;BME280;59500;49.588;18.018;2022-07-18T01:01:41;99055.69;;;11.23;71.10
71662;BME280;59500;49.588;18.018;2022-07-18T01:04:18;99067.59;;;11.18;71.40
71662;BME280;59500;49.588;18.018;2022-07-18T01:06:46;99061.00;;;11.13;70.77
71662;BME280;59500;49.588;18.018;2022-07-18T01:09:12;99062.13;;;11.10;70.44
71662;BME280;59500;49.588;18.018;2022-07-18T01:11:38;99052.63;;;11.08;70.54
71662;BME280;59500;49.588;18.018;2022-07-18T01:14:06;99049.13;;;11.07;70.88
71662;BME280;59500;49.588;18.018;2022-07-18T01:16:33;99055.28;;;11.08;70.77
71662;BME280;59500;49.588;18.018;2022-07-18T01:18:59;99060.47;;;11.09;70.59
71662;BME280;59500;49.588;18.018;2022-07-18T01:21:26;99055.69;;;11.13;70.98
71662;BME280;59500;49.588;18.018;2022-07-18T01:24:03;99061.69;;;11.15;71.17
71662;BME280;59500;49.588;18.018;2022-07-18T01:26:29;99065.06;;;11.17;70.70
71662;BME280;59500;49.588;18.018;2022-07-18T01:28:55;99063.66;;;11.13;70.32
71662;BME280;59500;49.588;18.018;2022-07-18T01:31:20;99055.13;;;11.09;70.19
71662;BME280;59500;49.588;18.018;2022-07-18T01:33:47;99060.03;;;11.04;70.20
71662;BME280;59500;49.588;18.018;2022-07-18T01:36:12;99067.88;;;11.06;70.02
71662;BME280;59500;49.588;18.018;2022-07-18T01:38:38;99063.00;;;11.01;69.78
71662;BME280;59500;49.588;18.018;2022-07-18T01:41:05;99068.56;;;10.98;70.37
71662;BME280;59500;49.588;18.018;2022-07-18T01:43:31;99062.84;;;10.93;70.85
71662;BME280;59500;49.588;18.018;2022-07-18T01:45:57;99064.81;;;10.91;70.61
71662;BME280;59500;49.588;18.018;2022-07-18T01:48:23;99063.56;;;10.95;71.21
71662;BME280;59500;49.588;18.018;2022-07-18T01:50:50;99073.78;;;11.00;71.54
71662;BME280;59500;49.588;18.018;2022-07-18T01:53:16;99073.22;;;11.06;71.38
71662;BME280;59500;49.588;18.018;2022-07-18T01:55:43;99073.06;;;11.07;70.71
71662;BME280;59500;49.588;18.018;2022-07-18T01:58:08;99078.25;;;11.09;71.12
71662;BME280;59500;49.588;18.018;2022-07-18T02:00:34;99075.16;;;11.13;71.53
71662;BME280;59500;49.588;18.018;2022-07-18T02:03:00;99070.69;;;11.14;70.60
71662;BME280;59500;49.588;18.018;2022-07-18T02:05:26;99072.34;;;11.15;70.59
71662;BME280;59500;49.588;18.018;2022-07-18T02:07:52;99084.56;;;11.08;70.62
71662;BME280;59500;49.588;18.018;2022-07-18T02:10:20;99078.69;;;10.94;71.22
71662;BME280;59500;49.588;18.018;2022-07-18T02:12:47;99073.34;;;10.85;70.96
71662;BME280;59500;49.588;18.018;2022-07-18T02:15:14;99070.00;;;10.73;71.71
71662;BME280;59500;49.588;18.018;2022-07-18T02:17:41;99077.16;;;10.72;72.34
71662;BME280;59500;49.588;18.018;2022-07-18T02:20:09;99071.97;;;10.71;72.18
71662;BME280;59500;49.588;18.018;2022-07-18T02:22:36;99076.44;;;10.70;72.54
71662;BME280;59500;49.588;18.018;2022-07-18T02:25:03;99077.56;;;10.68;72.11
71662;BME280;59500;49.588;18.018;2022-07-18T02:27:30;99076.88;;;10.66;71.19
71662;BME280;59500;49.588;18.018;2022-07-18T02:29:56;99063.56;;;10.66;70.88
71662;BME280;59500;49.588;18.018;2022-07-18T02:32:22;99059.91;;;10.67;71.04
71662;BME280;59500;49.588;18.018;2022-07-18T02:34:47;99061.03;;;10.64;70.81
71662;BME280;59500;49.588;18.018;2022-07-18T02:37:13;99064.13;;;10.50;71.16
71662;BME280;59500;49.588;18.018;2022-07-18T02:39:39;99054.03;;;10.44;70.98
71662;BME280;59500;49.588;18.018;2022-07-18T02:42:05;99051.09;;;10.37;71.65
71662;BME280;59500;49.588;18.018;2022-07-18T02:44:31;99058.94;;;10.39;71.98
71662;BME280;59500;49.588;18.018;2022-07-18T02:46:57;99059.47;;;10.42;72.45
71662;BME280;59500;49.588;18.018;2022-07-18T02:49:23;99063.13;;;10.51;72.42
71662;BME280;59500;49.588;18.018;2022-07-18T02:51:49;99065.25;;;10.57;72.67
71662;BME280;59500;49.588;18.018;2022-07-18T02:54:15;99066.38;;;10.54;72.74
71662;BME280;59500;49.588;18.018;2022-07-18T02:56:40;99074.75;;;10.60;72.24
71662;BME280;59500;49.588;18.018;2022-07-18T02:59:06;99067.63;;;10.60;72.23
71662;BME280;59500;49.588;18.018;2022-07-18T03:01:32;99073.94;;;10.59;72.47
71662;BME280;59500;49.588;18.018;2022-07-18T03:03:58;99072.81;;;10.52;71.86
71662;BME280;59500;49.588;18.018;2022-07-18T03:06:24;99079.25;;;10.49;72.03
71662;BME280;59500;49.588;18.018;2022-07-18T03:08:50;99076.28;;;10.43;72.31
71662;BME280;59500;49.588;18.018;2022-07-18T03:11:15;99078.38;;;10.39;71.88
71662;BME280;59500;49.588;18.018;2022-07-18T03:13:41;99075.84;;;10.38;72.43
71662;BME280;59500;49.588;18.018;2022-07-18T03:16:07;99071.34;;;10.28;72.14
71662;BME280;59500;49.588;18.018;2022-07-18T03:18:33;99076.16;;;10.34;72.85
71662;BME280;59500;49.588;18.018;2022-07-18T03:20:59;99071.94;;;10.42;73.23
71662;BME280;59500;49.588;18.018;2022-07-18T03:23:25;99082.03;;;10.48;72.24
71662;BME280;59500;49.588;18.018;2022-07-18T03:25:50;99087.22;;;10.59;71.75
71662;BME280;59500;49.588;18.018;2022-07-18T03:28:16;99085.97;;;10.73;71.74
71662;BME280;59500;49.588;18.018;2022-07-18T03:30:42;99091.16;;;10.94;71.49
71662;BME280;59500;49.588;18.018;2022-07-18T03:33:08;99086.06;;;11.30;69.61
71662;BME280;59500;49.588;18.018;2022-07-18T03:35:33;99085.16;;;11.58;69.02
71662;BME280;59500;49.588;18.018;2022-07-18T03:38:00;99080.34;;;11.72;67.68
71662;BME280;59500;49.588;18.018;2022-07-18T03:40:26;99080.59;;;11.78;66.80
71662;BME280;59500;49.588;18.018;2022-07-18T03:42:52;99079.06;;;11.76;66.52
71662;BME280;59500;49.588;18.018;2022-07-18T03:45:18;99075.72;;;11.74;66.54
71662;BME280;59500;49.588;18.018;2022-07-18T03:47:43;99079.47;;;11.81;66.65
71662;BME280;59500;49.588;18.018;2022-07-18T03:50:09;99077.75;;;11.90;67.02
71662;BME280;59500;49.588;18.018;2022-07-18T03:52:36;99074.16;;;12.09;66.54
71662;BME280;59500;49.588;18.018;2022-07-18T03:55:02;99079.13;;;12.49;65.30
71662;BME280;59500;49.588;18.018;2022-07-18T03:57:28;99083.44;;;13.22;64.22
71662;BME280;59500;49.588;18.018;2022-07-18T03:59:54;99074.16;;;13.95;62.19
71662;BME280;59500;49.588;18.018;2022-07-18T04:02:20;99070.56;;;14.55;60.53
71662;BME280;59500;49.588;18.018;2022-07-18T04:04:45;99071.59;;;15.19;59.51
71662;BME280;59500;49.588;18.018;2022-07-18T04:07:11;99078.72;;;15.60;56.90
71662;BME280;59500;49.588;18.018;2022-07-18T04:09:37;99076.97;;;15.91;56.52
71662;BME280;59500;49.588;18.018;2022-07-18T04:12:03;99087.97;;;16.13;56.08
71662;BME280;59500;49.588;18.018;2022-07-18T04:14:29;99083.53;;;16.60;55.14
71662;BME280;59500;49.588;18.018;2022-07-18T04:16:55;99080.50;;;17.09;53.23
71662;BME280;59500;49.588;18.018;2022-07-18T04:19:21;99071.22;;;17.34;51.67
71662;BME280;59500;49.588;18.018;2022-07-18T04:21:47;99073.69;;;17.74;51.26
71662;BME280;59500;49.588;18.018;2022-07-18T04:24:12;99074.34;;;18.06;50.92
71662;BME280;59500;49.588;18.018;2022-07-18T04:26:38;99071.75;;;17.97;50.73
71662;BME280;59500;49.588;18.018;2022-07-18T04:29:05;99070.44;;;17.78;50.81
71662;BME280;59500;49.588;18.018;2022-07-18T04:31:30;99070.34;;;17.72;51.02
71662;BME280;59500;49.588;18.018;2022-07-18T04:33:56;99070.50;;;17.55;50.33
71662;BME280;59500;49.588;18.018;2022-07-18T04:36:22;99070.59;;;17.62;50.87
71662;BME280;59500;49.588;18.018;2022-07-18T04:38:48;99066.91;;;17.78;50.12
71662;BME280;59500;49.588;18.018;2022-07-18T04:41:13;99072.03;;;17.88;49.56
71662;BME280;59500;49.588;18.018;2022-07-18T04:43:40;99067.66;;;18.16;49.00
71662;BME280;59500;49.588;18.018;2022-07-18T04:46:05;99070.22;;;18.61;47.60
71662;BME280;59500;49.588;18.018;2022-07-18T04:48:31;99060.22;;;19.19;46.24
71662;BME280;59500;49.588;18.018;2022-07-18T04:50:57;99059.44;;;19.54;45.47
71662;BME280;59500;49.588;18.018;2022-07-18T04:53:23;99059.63;;;20.15;44.80
71662;BME280;59500;49.588;18.018;2022-07-18T04:55:49;99057.53;;;20.92;43.87
71662;BME280;59500;49.588;18.018;2022-07-18T04:58:15;99052.16;;;21.65;42.34
71662;BME280;59500;49.588;18.018;2022-07-18T05:00:41;99051.88;;;22.52;41.36
71662;BME280;59500;49.588;18.018;2022-07-18T05:03:06;99054.25;;;23.30;38.76
71662;BME280;59500;49.588;18.018;2022-07-18T05:05:32;99046.53;;;23.96;37.53
71662;BME280;59500;49.588;18.018;2022-07-18T05:07:58;99046.63;;;24.68;36.25
71662;BME280;59500;49.588;18.018;2022-07-18T05:10:24;99049.41;;;25.22;35.96
71662;BME280;59500;49.588;18.018;2022-07-18T05:12:52;99045.47;;;25.18;35.82
71662;BME280;59500;49.588;18.018;2022-07-18T05:15:23;99043.84;;;25.52;34.90
71662;BME280;59500;49.588;18.018;2022-07-18T05:17:49;99042.03;;;26.05;35.37
71662;BME280;59500;49.588;18.018;2022-07-18T05:20:18;99037.47;;;26.63;33.12
71662;BME280;59500;49.588;18.018;2022-07-18T05:22:54;99038.97;;;27.33;30.61
71662;BME280;59500;49.588;18.018;2022-07-18T05:25:43;99040.00;;;27.66;29.77
71662;BME280;59500;49.588;18.018;2022-07-18T05:28:13;99035.34;;;27.66;30.43
71662;BME280;59500;49.588;18.018;2022-07-18T05:30:39;99047.72;;;27.52;30.08
71662;BME280;59500;49.588;18.018;2022-07-18T05:33:05;99038.66;;;27.85;31.04
71662;BME280;59500;49.588;18.018;2022-07-18T05:35:31;99037.44;;;28.20;31.05
71662;BME280;59500;49.588;18.018;2022-07-18T05:37:57;99041.13;;;28.09;30.14
71662;BME280;59500;49.588;18.018;2022-07-18T05:40:22;99038.00;;;28.00;30.31
71662;BME280;59500;49.588;18.018;2022-07-18T05:42:48;99036.63;;;28.20;29.77
71662;BME280;59500;49.588;18.018;2022-07-18T05:45:14;99030.06;;;28.43;30.42
71662;BME280;59500;49.588;18.018;2022-07-18T05:47:43;99042.13;;;28.25;29.91
71662;BME280;59500;49.588;18.018;2022-07-18T05:50:11;99031.09;;;27.76;30.46
71662;BME280;59500;49.588;18.018;2022-07-18T05:52:37;99041.09;;;26.97;31.36
71662;BME280;59500;49.588;18.018;2022-07-18T05:55:04;99036.03;;;27.06;30.76
71662;BME280;59500;49.588;18.018;2022-07-18T05:57:29;99032.19;;;26.73;30.63
71662;BME280;59500;49.588;18.018;2022-07-18T05:59:56;99044.59;;;27.27;31.47
71662;BME280;59500;49.588;18.018;2022-07-18T06:02:21;99038.34;;;28.26;29.78
71662;BME280;59500;49.588;18.018;2022-07-18T06:04:49;99034.63;;;28.59;28.86
71662;BME280;59500;49.588;18.018;2022-07-18T06:07:25;99037.72;;;29.00;27.86
71662;BME280;59500;49.588;18.018;2022-07-18T06:09:57;99040.25;;;29.72;27.39
71662;BME280;59500;49.588;18.018;2022-07-18T06:12:40;99033.31;;;30.22;26.08
71662;BME280;59500;49.588;18.018;2022-07-18T06:15:29;99026.31;;;30.51;26.20
71662;BME280;59500;49.588;18.018;2022-07-18T06:18:23;99032.47;;;31.05;25.13
71662;BME280;59500;49.588;18.018;2022-07-18T06:20:50;99031.06;;;31.33;24.82
71662;BME280;59500;49.588;18.018;2022-07-18T06:23:16;99027.22;;;31.49;24.47
71662;BME280;59500;49.588;18.018;2022-07-18T06:25:46;99022.09;;;32.13;24.13
71662;BME280;59500;49.588;18.018;2022-07-18T06:28:36;99032.00;;;32.14;23.08
71662;BME280;59500;49.588;18.018;2022-07-18T06:31:30;99027.19;;;32.40;22.54
71662;BME280;59500;49.588;18.018;2022-07-18T06:33:57;99033.94;;;32.68;21.65
71662;BME280;59500;49.588;18.018;2022-07-18T06:36:23;99038.09;;;33.00;22.29
71662;BME280;59500;49.588;18.018;2022-07-18T06:38:52;99034.66;;;33.18;22.37
71662;BME280;59500;49.588;18.018;2022-07-18T06:41:19;99040.22;;;33.13;22.02
71662;BME280;59500;49.588;18.018;2022-07-18T06:43:47;99047.25;;;32.95;22.56
71662;BME280;59500;49.588;18.018;2022-07-18T06:46:15;99046.44;;;32.95;21.92
71662;BME280;59500;49.588;18.018;2022-07-18T06:48:49;99052.75;;;32.95;22.57
71662;BME280;59500;49.588;18.018;2022-07-18T06:51:18;99047.75;;;31.88;22.96
71662;BME280;59500;49.588;18.018;2022-07-18T06:53:44;99042.59;;;31.71;24.81
71662;BME280;59500;49.588;18.018;2022-07-18T06:56:09;99043.59;;;31.95;24.47
71662;BME280;59500;49.588;18.018;2022-07-18T06:58:35;99035.38;;;31.85;23.20
71662;BME280;59500;49.588;18.018;2022-07-18T07:01:06;99039.19;;;32.65;22.82
71662;BME280;59500;49.588;18.018;2022-07-18T07:03:37;99033.94;;;32.13;22.01
71662;BME280;59500;49.588;18.018;2022-07-18T07:06:06;99029.34;;;31.88;22.87
71662;BME280;59500;49.588;18.018;2022-07-18T07:08:32;99030.44;;;32.57;22.68
71662;BME280;59500;49.588;18.018;2022-07-18T07:11:01;99015.28;;;32.94;21.71
71662;BME280;59500;49.588;18.018;2022-07-18T07:13:30;99016.34;;;32.59;22.45
71662;BME280;59500;49.588;18.018;2022-07-18T07:15:56;99021.88;;;32.04;23.03
71662;BME280;59500;49.588;18.018;2022-07-18T07:18:22;99010.66;;;31.80;23.43
71662;BME280;59500;49.588;18.018;2022-07-18T07:20:48;99014.06;;;32.27;23.47
71662;BME280;59500;49.588;18.018;2022-07-18T07:23:14;99010.50;;;32.21;22.75
71662;BME280;59500;49.588;18.018;2022-07-18T07:25:42;99007.13;;;31.64;22.88
71662;BME280;59500;49.588;18.018;2022-07-18T07:28:11;99013.75;;;31.43;23.02
71662;BME280;59500;49.588;18.018;2022-07-18T07:30:39;99009.47;;;31.96;22.63
71662;BME280;59500;49.588;18.018;2022-07-18T07:33:07;99015.16;;;32.26;22.53
71662;BME280;59500;49.588;18.018;2022-07-18T07:35:33;99004.63;;;32.38;22.43
71662;BME280;59500;49.588;18.018;2022-07-18T07:37:59;99009.31;;;32.82;22.79
71662;BME280;59500;49.588;18.018;2022-07-18T07:40:27;99006.41;;;33.37;22.56
71662;BME280;59500;49.588;18.018;2022-07-18T07:43:08;99008.75;;;33.49;22.47
71662;BME280;59500;49.588;18.018;2022-07-18T07:45:35;99012.78;;;33.56;22.33
71662;BME280;59500;49.588;18.018;2022-07-18T07:48:05;99014.53;;;33.76;21.99
71662;BME280;59500;49.588;18.018;2022-07-18T07:50:31;99006.09;;;33.09;22.48
71662;BME280;59500;49.588;18.018;2022-07-18T07:53:00;99010.47;;;32.26;22.63
71662;BME280;59500;49.588;18.018;2022-07-18T07:55:27;99010.41;;;31.71;22.81
71662;BME280;59500;49.588;18.018;2022-07-18T07:57:53;99008.53;;;31.51;22.85
71662;BME280;59500;49.588;18.018;2022-07-18T08:00:21;99007.41;;;31.58;23.30
71662;BME280;59500;49.588;18.018;2022-07-18T08:03:04;99005.50;;;31.17;24.89
71662;BME280;59500;49.588;18.018;2022-07-18T08:05:38;99010.41;;;30.64;24.68
71662;BME280;59500;49.588;18.018;2022-07-18T08:08:06;99009.31;;;30.75;23.80
71662;BME280;59500;49.588;18.018;2022-07-18T08:10:34;99010.22;;;30.91;23.63
71662;BME280;59500;49.588;18.018;2022-07-18T08:13:02;99009.91;;;30.82;24.89
71662;BME280;59500;49.588;18.018;2022-07-18T08:15:32;99015.41;;;30.87;24.15
71662;BME280;59500;49.588;18.018;2022-07-18T08:17:59;99009.09;;;31.43;23.97
71662;BME280;59500;49.588;18.018;2022-07-18T08:20:31;99008.13;;;31.84;22.43
71662;BME280;59500;49.588;18.018;2022-07-18T08:23:01;99012.19;;;32.12;22.04
71662;BME280;59500;49.588;18.018;2022-07-18T08:25:36;99004.78;;;32.07;22.67
71662;BME280;59500;49.588;18.018;2022-07-18T08:28:14;99003.84;;;32.27;23.22
71662;BME280;59500;49.588;18.018;2022-07-18T08:30:41;99006.13;;;32.65;22.56
71662;BME280;59500;49.588;18.018;2022-07-18T08:33:11;99001.91;;;32.77;21.79
71662;BME280;59500;49.588;18.018;2022-07-18T08:35:39;99003.81;;;32.82;21.01
71662;BME280;59500;49.588;18.018;2022-07-18T08:38:05;98998.59;;;32.81;22.02
71662;BME280;59500;49.588;18.018;2022-07-18T08:40:32;99004.38;;;32.34;20.81
71662;BME280;59500;49.588;18.018;2022-07-18T08:42:58;99002.84;;;32.08;21.18
71662;BME280;59500;49.588;18.018;2022-07-18T08:45:25;99003.09;;;32.16;22.81
71662;BME280;59500;49.588;18.018;2022-07-18T08:47:52;99006.41;;;32.13;22.66
71662;BME280;59500;49.588;18.018;2022-07-18T08:50:18;98997.19;;;32.83;22.30
71662;BME280;59500;49.588;18.018;2022-07-18T08:52:44;99006.28;;;32.84;20.83
71662;BME280;59500;49.588;18.018;2022-07-18T08:55:15;99006.09;;;33.09;21.13
71662;BME280;59500;49.588;18.018;2022-07-18T08:57:46;99010.16;;;33.17;20.98
71662;BME280;59500;49.588;18.018;2022-07-18T09:00:12;99001.63;;;33.43;19.49
71662;BME280;59500;49.588;18.018;2022-07-18T09:02:38;99004.78;;;34.32;19.21
71662;BME280;59500;49.588;18.018;2022-07-18T09:05:05;98991.47;;;34.53;17.97
71662;BME280;59500;49.588;18.018;2022-07-18T09:07:34;98996.34;;;35.13;17.17
71662;BME280;59500;49.588;18.018;2022-07-18T09:10:01;98993.06;;;34.78;17.95
71662;BME280;59500;49.588;18.018;2022-07-18T09:12:29;98992.16;;;35.16;17.90
71662;BME280;59500;49.588;18.018;2022-07-18T09:15:04;98983.00;;;35.34;18.33
71662;BME280;59500;49.588;18.018;2022-07-18T09:17:33;98986.88;;;35.33;17.87
71662;BME280;59500;49.588;18.018;2022-07-18T09:20:06;98983.81;;;35.35;17.39
71662;BME280;59500;49.588;18.018;2022-07-18T09:22:35;98979.22;;;35.44;18.49
71662;BME280;59500;49.588;18.018;2022-07-18T09:25:09;98978.09;;;35.59;18.83
71662;BME280;59500;49.588;18.018;2022-07-18T09:27:47;98982.09;;;36.22;18.27
71662;BME280;59500;49.588;18.018;2022-07-18T09:35:52;98977.41;;;35.95;18.08
71662;BME280;59500;49.588;18.018;2022-07-18T09:38:20;98983.97;;;35.85;17.93
71662;BME280;59500;49.588;18.018;2022-07-18T09:40:51;98981.44;;;34.95;18.21
71662;BME280;59500;49.588;18.018;2022-07-18T09:43:22;98983.75;;;35.54;18.50
71662;BME280;59500;49.588;18.018;2022-07-18T09:45:54;98976.34;;;35.35;17.49
71662;BME280;59500;49.588;18.018;2022-07-18T09:48:22;98976.91;;;35.65;17.63
71662;BME280;59500;49.588;18.018;2022-07-18T09:53:44;98977.09;;;36.46;17.78
71662;BME280;59500;49.588;18.018;2022-07-18T09:56:22;98978.53;;;36.44;16.03
71662;BME280;59500;49.588;18.018;2022-07-18T09:58:54;98974.31;;;36.46;15.51
71662;BME280;59500;49.588;18.018;2022-07-18T10:01:23;98974.19;;;36.29;16.27
71662;BME280;59500;49.588;18.018;2022-07-18T10:03:51;98959.66;;;35.96;16.16
71662;BME280;59500;49.588;18.018;2022-07-18T10:06:21;98970.31;;;36.16;16.20
71662;BME280;59500;49.588;18.018;2022-07-18T10:08:54;98967.59;;;36.39;16.36
71662;BME280;59500;49.588;18.018;2022-07-18T10:11:23;98965.88;;;36.88;17.80
71662;BME280;59500;49.588;18.018;2022-07-18T10:13:50;98966.41;;;37.21;15.79
71662;BME280;59500;49.588;18.018;2022-07-18T10:16:26;98966.50;;;37.07;16.03
71662;BME280;59500;49.588;18.018;2022-07-18T10:18:52;98962.34;;;36.96;15.93
71662;BME280;59500;49.588;18.018;2022-07-18T10:21:20;98961.97;;;36.89;15.14
71662;BME280;59500;49.588;18.018;2022-07-18T10:23:47;98965.03;;;36.29;15.54
71662;BME280;59500;49.588;18.018;2022-07-18T10:26:16;98959.78;;;35.77;15.62
71662;BME280;59500;49.588;18.018;2022-07-18T10:31:36;98962.41;;;36.10;15.31
71662;BME280;59500;49.588;18.018;2022-07-18T10:39:33;98950.94;;;36.02;15.01
71662;BME280;59500;49.588;18.018;2022-07-18T10:57:40;98947.75;;;36.09;14.57
71662;BME280;59500;49.588;18.018;2022-07-18T11:00:13;98940.88;;;36.20;15.17
71662;BME280;59500;49.588;18.018;2022-07-18T11:02:42;98932.66;;;36.15;14.69
71662;BME280;59500;49.588;18.018;2022-07-18T11:05:36;98927.84;;;36.21;15.26
71662;BME280;59500;49.588;18.018;2022-07-18T11:16:16;98929.81;;;36.20;15.34
71662;BME280;59500;49.588;18.018;2022-07-18T11:21:17;98910.59;;;35.74;15.92
71662;BME280;59500;49.588;18.018;2022-07-18T11:23:46;98912.66;;;36.04;16.15
71662;BME280;59500;49.588;18.018;2022-07-18T11:26:19;98906.06;;;36.28;16.69
71662;BME280;59500;49.588;18.018;2022-07-18T11:28:56;98905.63;;;35.84;15.91
71662;BME280;59500;49.588;18.018;2022-07-18T11:31:23;98901.56;;;35.68;16.87
71662;BME280;59500;49.588;18.018;2022-07-18T11:33:59;98895.31;;;35.21;16.46
71662;BME280;59500;49.588;18.018;2022-07-18T11:36:31;98900.22;;;34.77;16.91
71662;BME280;59500;49.588;18.018;2022-07-18T11:39:00;98891.88;;;34.96;18.84
71662;BME280;59500;49.588;18.018;2022-07-18T11:41:27;98888.56;;;35.41;18.32
71662;BME280;59500;49.588;18.018;2022-07-18T11:43:56;98887.47;;;35.09;17.50
71662;BME280;59500;49.588;18.018;2022-07-18T11:46:28;98890.34;;;34.38;17.93
71662;BME280;59500;49.588;18.018;2022-07-18T11:49:03;98890.28;;;34.06;18.23
71662;BME280;59500;49.588;18.018;2022-07-18T11:51:36;98884.75;;;34.06;18.88
71662;BME280;59500;49.588;18.018;2022-07-18T11:54:03;98885.53;;;34.11;18.29
71662;BME280;59500;49.588;18.018;2022-07-18T11:56:51;98886.09;;;34.27;19.07
71662;BME280;59500;49.588;18.018;2022-07-18T11:59:22;98874.81;;;34.42;17.96
71662;BME280;59500;49.588;18.018;2022-07-18T12:01:53;98872.38;;;34.41;18.08
71662;BME280;59500;49.588;18.018;2022-07-18T12:04:23;98877.19;;;34.49;18.19
71662;BME280;59500;49.588;18.018;2022-07-18T12:07:23;98871.50;;;34.92;17.59
71662;BME280;59500;49.588;18.018;2022-07-18T12:09:51;98871.09;;;34.85;17.95
71662;BME280;59500;49.588;18.018;2022-07-18T12:12:21;98864.13;;;34.88;17.49
71662;BME280;59500;49.588;18.018;2022-07-18T12:14:58;98871.25;;;35.21;18.98
71662;BME280;59500;49.588;18.018;2022-07-18T12:17:26;98875.84;;;35.54;17.47
71662;BME280;59500;49.588;18.018;2022-07-18T12:19:52;98870.94;;;35.51;17.02
71662;BME280;59500;49.588;18.018;2022-07-18T12:22:18;98864.25;;;34.96;16.66
71662;BME280;59500;49.588;18.018;2022-07-18T12:24:53;98858.44;;;34.13;17.30
71662;BME280;59500;49.588;18.018;2022-07-18T12:32:52;98851.16;;;33.60;19.68
71662;BME280;59500;49.588;18.018;2022-07-18T12:35:32;98851.13;;;34.04;18.21
71662;BME280;59500;49.588;18.018;2022-07-18T12:38:02;98854.78;;;34.70;18.88
71662;BME280;59500;49.588;18.018;2022-07-18T12:40:48;98847.16;;;34.94;17.61
71662;BME280;59500;49.588;18.018;2022-07-18T12:43:35;98849.09;;;34.61;17.94
71662;BME280;59500;49.588;18.018;2022-07-18T12:46:25;98842.63;;;34.85;18.10
71662;BME280;59500;49.588;18.018;2022-07-18T12:48:51;98844.41;;;34.29;17.52
71662;BME280;59500;49.588;18.018;2022-07-18T12:51:18;98835.09;;;33.68;18.89
71662;BME280;59500;49.588;18.018;2022-07-18T12:53:44;98847.50;;;32.93;19.23
71662;BME280;59500;49.588;18.018;2022-07-18T12:56:10;98847.56;;;32.19;19.48
71662;BME280;59500;49.588;18.018;2022-07-18T12:58:37;98839.13;;;31.61;20.04
71662;BME280;59500;49.588;18.018;2022-07-18T13:01:08;98836.06;;;30.77;19.90
71662;BME280;59500;49.588;18.018;2022-07-18T13:03:35;98836.34;;;30.19;21.00
71662;BME280;59500;49.588;18.018;2022-07-18T13:06:04;98831.41;;;30.05;22.61
71662;BME280;59500;49.588;18.018;2022-07-18T13:08:32;98836.59;;;29.91;22.04
71662;BME280;59500;49.588;18.018;2022-07-18T13:10:58;98833.75;;;29.61;22.13
71662;BME280;59500;49.588;18.018;2022-07-18T13:13:28;98835.88;;;29.38;22.53
71662;BME280;59500;49.588;18.018;2022-07-18T13:15:53;98831.19;;;28.86;22.04
71662;BME280;59500;49.588;18.018;2022-07-18T13:18:20;98824.84;;;28.43;22.32
71662;BME280;59500;49.588;18.018;2022-07-18T13:20:46;98825.56;;;28.28;24.32
71662;BME280;59500;49.588;18.018;2022-07-18T13:23:12;98822.47;;;28.19;24.28
71662;BME280;59500;49.588;18.018;2022-07-18T13:25:38;98818.47;;;28.00;23.14
71662;BME280;59500;49.588;18.018;2022-07-18T13:28:06;98810.69;;;27.86;24.38
71662;BME280;59500;49.588;18.018;2022-07-18T13:30:32;98818.06;;;27.86;24.66
71662;BME280;59500;49.588;18.018;2022-07-18T13:32:58;98816.22;;;27.70;23.67
71662;BME280;59500;49.588;18.018;2022-07-18T13:35:25;98807.09;;;27.59;23.83
71662;BME280;59500;49.588;18.018;2022-07-18T13:37:51;98812.56;;;27.59;24.22
71662;BME280;59500;49.588;18.018;2022-07-18T13:40:17;98814.59;;;27.47;24.12
71662;BME280;59500;49.588;18.018;2022-07-18T13:42:53;98805.47;;;27.63;23.57
71662;BME280;59500;49.588;18.018;2022-07-18T13:45:19;98803.78;;;27.84;24.51